sensor_id;sensor_type;location;lat;lon;timestamp;P1;durP1;ratioP1;P2;durP2;ratioP2
19800;SDS011;10060;48.274;12.214;2022-11-12T00:01:28;32.73;;;11.50;;
19800;SDS011;10060;48.274;12.214;2022-11-12T00:04:32;42.73;;;12.10;;
19800;SDS011;10060;48.274;12.214;2022-11-12T00:07:34;57.80;;;12.20;;
19800;SDS011;10060;48.274;12.214;2022-11-12T00:10:36;68.27;;;11.73;;
19800;SDS011;10060;48.274;12.214;2022-11-12T00:13:38;41.53;;;11.80;;
19800;SDS011;10060;48.274;12.214;2022-11-12T00:16:40;27.63;;;11.20;;
19800;SDS011;10060;48.274;12.214;2022-11-12T00:19:44;24.90;;;11.43;;
19800;SDS011;10060;48.274;12.214;2022-11-12T00:22:46;37.13;;;11.63;;
19800;SDS011;10060;48.274;12.214;2022-11-12T00:25:56;41.07;;;11.33;;
19800;SDS011;10060;48.274;12.214;2022-11-12T00:28:58;60.27;;;11.67;;
19800;SDS011;10060;48.274;12.214;2022-11-12T00:32:00;35.47;;;10.80;;
19800;SDS011;10060;48.274;12.214;2022-11-12T00:35:04;57.70;;;12.20;;
19800;SDS011;10060;48.274;12.214;2022-11-12T00:38:06;73.93;;;12.93;;
19800;SDS011;10060;48.274;12.214;2022-11-12T00:41:08;40.87;;;11.30;;
19800;SDS011;10060;48.274;12.214;2022-11-12T00:44:11;36.07;;;10.70;;
19800;SDS011;10060;48.274;12.214;2022-11-12T00:47:13;25.50;;;10.87;;
19800;SDS011;10060;48.274;12.214;2022-11-12T00:50:16;19.83;;;9.97;;
19800;SDS011;10060;48.274;12.214;2022-11-12T00:53:18;59.40;;;10.80;;
19800;SDS011;10060;48.274;12.214;2022-11-12T00:56:21;22.30;;;9.77;;
19800;SDS011;10060;48.274;12.214;2022-11-12T00:59:23;22.13;;;10.17;;
19800;SDS011;10060;48.274;12.214;2022-11-12T01:02:25;23.87;;;10.57;;
19800;SDS011;10060;48.274;12.214;2022-11-12T01:05:28;17.27;;;10.00;;
19800;SDS011;10060;48.274;12.214;2022-11-12T01:08:31;29.83;;;9.90;;
19800;SDS011;10060;48.274;12.214;2022-11-12T01:11:33;15.43;;;9.23;;
19800;SDS011;10060;48.274;12.214;2022-11-12T01:14:35;20.33;;;9.70;;
19800;SDS011;10060;48.274;12.214;2022-11-12T01:17:37;14.70;;;9.30;;
19800;SDS011;10060;48.274;12.214;2022-11-12T01:20:41;22.27;;;9.53;;
19800;SDS011;10060;48.274;12.214;2022-11-12T01:23:43;26.37;;;9.93;;
19800;SDS011;10060;48.274;12.214;2022-11-12T01:26:46;17.60;;;8.83;;
19800;SDS011;10060;48.274;12.214;2022-11-12T01:29:48;13.90;;;8.53;;
19800;SDS011;10060;48.274;12.214;2022-11-12T01:32:50;23.57;;;8.83;;
19800;SDS011;10060;48.274;12.214;2022-11-12T01:35:54;11.73;;;8.47;;
19800;SDS011;10060;48.274;12.214;2022-11-12T01:38:59;19.20;;;8.90;;
19800;SDS011;10060;48.274;12.214;2022-11-12T01:42:01;18.17;;;8.53;;
19800;SDS011;10060;48.274;12.214;2022-11-12T01:45:08;15.47;;;8.80;;
19800;SDS011;10060;48.274;12.214;2022-11-12T01:48:18;26.33;;;8.77;;
19800;SDS011;10060;48.274;12.214;2022-11-12T01:51:29;13.70;;;8.43;;
19800;SDS011;10060;48.274;12.214;2022-11-12T01:54:33;15.17;;;8.07;;
19800;SDS011;10060;48.274;12.214;2022-11-12T01:57:36;14.70;;;8.00;;
19800;SDS011;10060;48.274;12.214;2022-11-12T02:00:39;12.60;;;7.90;;
19800;SDS011;10060;48.274;12.214;2022-11-12T02:03:41;22.53;;;8.23;;
19800;SDS011;10060;48.274;12.214;2022-11-12T02:06:45;15.20;;;8.33;;
19800;SDS011;10060;48.274;12.214;2022-11-12T02:09:47;12.83;;;8.37;;
19800;SDS011;10060;48.274;12.214;2022-11-12T02:12:50;19.00;;;9.13;;
19800;SDS011;10060;48.274;12.214;2022-11-12T02:16:10;19.20;;;8.23;;
19800;SDS011;10060;48.274;12.214;2022-11-12T02:19:14;31.90;;;9.10;;
19800;SDS011;10060;48.274;12.214;2022-11-12T02:22:17;10.83;;;8.13;;
19800;SDS011;10060;48.274;12.214;2022-11-12T02:25:21;28.63;;;8.63;;
19800;SDS011;10060;48.274;12.214;2022-11-12T02:28:24;10.27;;;7.63;;
19800;SDS011;10060;48.274;12.214;2022-11-12T02:31:26;14.37;;;7.43;;
19800;SDS011;10060;48.274;12.214;2022-11-12T02:34:28;11.63;;;7.63;;
19800;SDS011;10060;48.274;12.214;2022-11-12T02:37:32;29.57;;;9.47;;
19800;SDS011;10060;48.274;12.214;2022-11-12T02:40:34;11.30;;;7.63;;
19800;SDS011;10060;48.274;12.214;2022-11-12T02:43:36;10.63;;;8.13;;
19800;SDS011;10060;48.274;12.214;2022-11-12T02:46:38;45.17;;;8.60;;
19800;SDS011;10060;48.274;12.214;2022-11-12T02:49:41;10.17;;;7.97;;
19800;SDS011;10060;48.274;12.214;2022-11-12T02:52:45;12.23;;;7.83;;
19800;SDS011;10060;48.274;12.214;2022-11-12T02:55:47;26.43;;;7.67;;
19800;SDS011;10060;48.274;12.214;2022-11-12T02:58:49;30.33;;;8.13;;
19800;SDS011;10060;48.274;12.214;2022-11-12T03:01:51;18.83;;;7.60;;
19800;SDS011;10060;48.274;12.214;2022-11-12T03:04:53;9.90;;;7.47;;
19800;SDS011;10060;48.274;12.214;2022-11-12T03:07:57;24.13;;;8.00;;
19800;SDS011;10060;48.274;12.214;2022-11-12T03:11:04;72.13;;;9.70;;
19800;SDS011;10060;48.274;12.214;2022-11-12T03:14:06;43.97;;;8.00;;
19800;SDS011;10060;48.274;12.214;2022-11-12T03:17:08;9.63;;;6.63;;
19800;SDS011;10060;48.274;12.214;2022-11-12T03:20:11;12.47;;;7.17;;
19800;SDS011;10060;48.274;12.214;2022-11-12T03:23:14;18.60;;;7.53;;
19800;SDS011;10060;48.274;12.214;2022-11-12T03:26:16;11.33;;;7.33;;
19800;SDS011;10060;48.274;12.214;2022-11-12T03:29:18;28.43;;;7.87;;
19800;SDS011;10060;48.274;12.214;2022-11-12T03:32:20;14.57;;;6.60;;
19800;SDS011;10060;48.274;12.214;2022-11-12T03:35:23;25.90;;;7.33;;
19800;SDS011;10060;48.274;12.214;2022-11-12T03:38:27;15.03;;;6.37;;
19800;SDS011;10060;48.274;12.214;2022-11-12T03:41:29;27.90;;;6.90;;
19800;SDS011;10060;48.274;12.214;2022-11-12T03:44:31;16.80;;;6.87;;
19800;SDS011;10060;48.274;12.214;2022-11-12T03:47:33;13.97;;;6.57;;
19800;SDS011;10060;48.274;12.214;2022-11-12T03:50:35;11.87;;;6.50;;
19800;SDS011;10060;48.274;12.214;2022-11-12T03:53:39;22.50;;;7.30;;
19800;SDS011;10060;48.274;12.214;2022-11-12T03:56:41;27.50;;;6.57;;
19800;SDS011;10060;48.274;12.214;2022-11-12T03:59:43;18.53;;;6.43;;
19800;SDS011;10060;48.274;12.214;2022-11-12T04:02:45;7.60;;;6.53;;
19800;SDS011;10060;48.274;12.214;2022-11-12T04:05:48;11.63;;;7.17;;
19800;SDS011;10060;48.274;12.214;2022-11-12T04:09:09;8.10;;;6.17;;
19800;SDS011;10060;48.274;12.214;2022-11-12T04:12:11;10.90;;;6.93;;
19800;SDS011;10060;48.274;12.214;2022-11-12T04:15:27;17.13;;;7.33;;
19800;SDS011;10060;48.274;12.214;2022-11-12T04:18:29;18.63;;;6.17;;
19800;SDS011;10060;48.274;12.214;2022-11-12T04:21:50;16.37;;;6.43;;
19800;SDS011;10060;48.274;12.214;2022-11-12T04:24:57;21.37;;;7.00;;
19800;SDS011;10060;48.274;12.214;2022-11-12T04:28:17;13.77;;;6.17;;
19800;SDS011;10060;48.274;12.214;2022-11-12T04:31:19;15.03;;;6.50;;
19800;SDS011;10060;48.274;12.214;2022-11-12T04:34:20;37.93;;;6.83;;
19800;SDS011;10060;48.274;12.214;2022-11-12T04:37:29;32.80;;;7.23;;
19800;SDS011;10060;48.274;12.214;2022-11-12T04:40:44;8.10;;;6.20;;
19800;SDS011;10060;48.274;12.214;2022-11-12T04:44:04;10.40;;;5.93;;
19800;SDS011;10060;48.274;12.214;2022-11-12T04:47:24;9.17;;;6.53;;
19800;SDS011;10060;48.274;12.214;2022-11-12T04:50:26;11.90;;;6.23;;
19800;SDS011;10060;48.274;12.214;2022-11-12T04:53:29;9.27;;;6.03;;
19800;SDS011;10060;48.274;12.214;2022-11-12T04:56:33;13.33;;;6.10;;
19800;SDS011;10060;48.274;12.214;2022-11-12T04:59:35;10.30;;;5.40;;
19800;SDS011;10060;48.274;12.214;2022-11-12T05:02:37;7.73;;;6.23;;
19800;SDS011;10060;48.274;12.214;2022-11-12T05:05:40;12.77;;;5.77;;
19800;SDS011;10060;48.274;12.214;2022-11-12T05:08:42;11.53;;;6.27;;
19800;SDS011;10060;48.274;12.214;2022-11-12T05:11:45;22.23;;;6.93;;
19800;SDS011;10060;48.274;12.214;2022-11-12T05:14:48;13.87;;;6.20;;
19800;SDS011;10060;48.274;12.214;2022-11-12T05:17:50;9.97;;;6.27;;
19800;SDS011;10060;48.274;12.214;2022-11-12T05:20:52;14.00;;;6.50;;
19800;SDS011;10060;48.274;12.214;2022-11-12T05:23:54;12.73;;;6.23;;
19800;SDS011;10060;48.274;12.214;2022-11-12T05:26:58;7.80;;;6.23;;
19800;SDS011;10060;48.274;12.214;2022-11-12T05:30:00;11.27;;;7.80;;
19800;SDS011;10060;48.274;12.214;2022-11-12T05:33:02;11.40;;;6.73;;
19800;SDS011;10060;48.274;12.214;2022-11-12T05:36:05;15.33;;;6.97;;
19800;SDS011;10060;48.274;12.214;2022-11-12T05:39:07;55.67;;;8.80;;
19800;SDS011;10060;48.274;12.214;2022-11-12T05:42:11;70.83;;;8.40;;
19800;SDS011;10060;48.274;12.214;2022-11-12T05:45:13;28.40;;;7.20;;
19800;SDS011;10060;48.274;12.214;2022-11-12T05:48:15;12.83;;;6.30;;
19800;SDS011;10060;48.274;12.214;2022-11-12T05:51:17;25.43;;;6.77;;
19800;SDS011;10060;48.274;12.214;2022-11-12T05:54:20;104.23;;;10.50;;
19800;SDS011;10060;48.274;12.214;2022-11-12T05:57:26;27.97;;;7.33;;
19800;SDS011;10060;48.274;12.214;2022-11-12T06:00:29;10.90;;;5.80;;
19800;SDS011;10060;48.274;12.214;2022-11-12T06:03:31;41.00;;;7.63;;
19800;SDS011;10060;48.274;12.214;2022-11-12T06:06:33;38.60;;;7.73;;
19800;SDS011;10060;48.274;12.214;2022-11-12T06:09:35;23.57;;;6.93;;
19800;SDS011;10060;48.274;12.214;2022-11-12T06:12:39;70.70;;;10.07;;
19800;SDS011;10060;48.274;12.214;2022-11-12T06:15:41;10.87;;;6.63;;
19800;SDS011;10060;48.274;12.214;2022-11-12T06:18:43;64.57;;;9.67;;
19800;SDS011;10060;48.274;12.214;2022-11-12T06:21:46;18.23;;;7.03;;
19800;SDS011;10060;48.274;12.214;2022-11-12T06:24:48;32.43;;;7.87;;
19800;SDS011;10060;48.274;12.214;2022-11-12T06:27:52;28.17;;;8.30;;
19800;SDS011;10060;48.274;12.214;2022-11-12T06:30:54;28.13;;;8.33;;
19800;SDS011;10060;48.274;12.214;2022-11-12T06:33:56;50.00;;;9.17;;
19800;SDS011;10060;48.274;12.214;2022-11-12T06:36:59;23.60;;;7.97;;
19800;SDS011;10060;48.274;12.214;2022-11-12T06:40:01;64.97;;;10.83;;
19800;SDS011;10060;48.274;12.214;2022-11-12T06:43:05;27.27;;;7.80;;
19800;SDS011;10060;48.274;12.214;2022-11-12T06:46:08;17.27;;;8.30;;
19800;SDS011;10060;48.274;12.214;2022-11-12T06:49:11;21.87;;;7.57;;
19800;SDS011;10060;48.274;12.214;2022-11-12T06:52:13;40.87;;;8.57;;
19800;SDS011;10060;48.274;12.214;2022-11-12T06:55:16;32.37;;;8.27;;
19800;SDS011;10060;48.274;12.214;2022-11-12T06:58:19;22.57;;;7.93;;
19800;SDS011;10060;48.274;12.214;2022-11-12T07:01:21;48.47;;;9.20;;
19800;SDS011;10060;48.274;12.214;2022-11-12T07:04:24;40.67;;;8.63;;
19800;SDS011;10060;48.274;12.214;2022-11-12T07:07:27;15.57;;;7.80;;
19800;SDS011;10060;48.274;12.214;2022-11-12T07:10:29;13.10;;;8.23;;
19800;SDS011;10060;48.274;12.214;2022-11-12T07:13:33;20.47;;;8.80;;
19800;SDS011;10060;48.274;12.214;2022-11-12T07:16:35;30.83;;;9.60;;
19800;SDS011;10060;48.274;12.214;2022-11-12T07:19:38;14.10;;;8.40;;
19800;SDS011;10060;48.274;12.214;2022-11-12T07:22:40;14.17;;;7.67;;
19800;SDS011;10060;48.274;12.214;2022-11-12T07:25:42;22.70;;;8.87;;
19800;SDS011;10060;48.274;12.214;2022-11-12T07:28:53;15.57;;;8.17;;
19800;SDS011;10060;48.274;12.214;2022-11-12T07:31:56;26.87;;;9.00;;
19800;SDS011;10060;48.274;12.214;2022-11-12T07:34:58;13.37;;;7.90;;
19800;SDS011;10060;48.274;12.214;2022-11-12T07:38:00;24.13;;;10.53;;
19800;SDS011;10060;48.274;12.214;2022-11-12T07:41:04;21.37;;;10.43;;
19800;SDS011;10060;48.274;12.214;2022-11-12T07:44:07;31.47;;;13.90;;
19800;SDS011;10060;48.274;12.214;2022-11-12T07:47:10;33.10;;;10.40;;
19800;SDS011;10060;48.274;12.214;2022-11-12T07:50:12;21.03;;;9.00;;
19800;SDS011;10060;48.274;12.214;2022-11-12T07:53:14;14.53;;;8.23;;
19800;SDS011;10060;48.274;12.214;2022-11-12T07:56:17;24.40;;;8.50;;
19800;SDS011;10060;48.274;12.214;2022-11-12T07:59:21;31.97;;;9.40;;
19800;SDS011;10060;48.274;12.214;2022-11-12T08:02:23;43.40;;;11.10;;
19800;SDS011;10060;48.274;12.214;2022-11-12T08:05:26;12.53;;;8.70;;
19800;SDS011;10060;48.274;12.214;2022-11-12T08:08:28;33.97;;;9.53;;
19800;SDS011;10060;48.274;12.214;2022-11-12T08:11:30;15.37;;;9.07;;
19800;SDS011;10060;48.274;12.214;2022-11-12T08:14:34;48.30;;;11.03;;
19800;SDS011;10060;48.274;12.214;2022-11-12T08:17:37;24.17;;;9.40;;
19800;SDS011;10060;48.274;12.214;2022-11-12T08:20:39;18.30;;;9.07;;
19800;SDS011;10060;48.274;12.214;2022-11-12T08:23:42;19.77;;;9.40;;
19800;SDS011;10060;48.274;12.214;2022-11-12T08:26:44;76.67;;;11.70;;
19800;SDS011;10060;48.274;12.214;2022-11-12T08:29:47;18.57;;;8.77;;
19800;SDS011;10060;48.274;12.214;2022-11-12T08:32:54;25.87;;;10.07;;
19800;SDS011;10060;48.274;12.214;2022-11-12T08:35:56;75.80;;;11.70;;
19800;SDS011;10060;48.274;12.214;2022-11-12T08:38:59;45.83;;;10.53;;
19800;SDS011;10060;48.274;12.214;2022-11-12T08:42:01;55.83;;;11.57;;
19800;SDS011;10060;48.274;12.214;2022-11-12T08:45:05;15.27;;;9.03;;
19800;SDS011;10060;48.274;12.214;2022-11-12T08:48:08;18.33;;;10.03;;
19800;SDS011;10060;48.274;12.214;2022-11-12T08:51:12;23.37;;;9.13;;
19800;SDS011;10060;48.274;12.214;2022-11-12T08:54:14;32.93;;;9.57;;
19800;SDS011;10060;48.274;12.214;2022-11-12T08:57:17;36.40;;;10.43;;
19800;SDS011;10060;48.274;12.214;2022-11-12T09:00:20;20.80;;;10.53;;
19800;SDS011;10060;48.274;12.214;2022-11-12T09:03:23;30.80;;;10.93;;
19800;SDS011;10060;48.274;12.214;2022-11-12T09:06:25;17.63;;;9.30;;
19800;SDS011;10060;48.274;12.214;2022-11-12T09:09:28;43.47;;;9.40;;
19800;SDS011;10060;48.274;12.214;2022-11-12T09:12:30;20.00;;;9.37;;
19800;SDS011;10060;48.274;12.214;2022-11-12T09:15:33;15.03;;;8.03;;
19800;SDS011;10060;48.274;12.214;2022-11-12T09:18:36;18.87;;;10.60;;
19800;SDS011;10060;48.274;12.214;2022-11-12T09:21:38;11.13;;;8.20;;
19800;SDS011;10060;48.274;12.214;2022-11-12T09:24:40;22.40;;;9.00;;
19800;SDS011;10060;48.274;12.214;2022-11-12T09:27:42;12.13;;;8.00;;
19800;SDS011;10060;48.274;12.214;2022-11-12T09:30:46;12.60;;;9.20;;
19800;SDS011;10060;48.274;12.214;2022-11-12T09:33:49;19.17;;;9.40;;
19800;SDS011;10060;48.274;12.214;2022-11-12T09:36:51;21.00;;;9.53;;
19800;SDS011;10060;48.274;12.214;2022-11-12T09:39:53;13.03;;;9.20;;
19800;SDS011;10060;48.274;12.214;2022-11-12T09:42:56;27.30;;;9.53;;
19800;SDS011;10060;48.274;12.214;2022-11-12T09:46:00;27.20;;;10.47;;
19800;SDS011;10060;48.274;12.214;2022-11-12T09:49:06;15.13;;;9.57;;
19800;SDS011;10060;48.274;12.214;2022-11-12T09:52:13;17.23;;;9.63;;
19800;SDS011;10060;48.274;12.214;2022-11-12T09:55:28;14.07;;;9.70;;
19800;SDS011;10060;48.274;12.214;2022-11-12T09:58:30;14.27;;;9.70;;
19800;SDS011;10060;48.274;12.214;2022-11-12T10:01:37;39.27;;;10.27;;
19800;SDS011;10060;48.274;12.214;2022-11-12T10:04:53;23.97;;;9.13;;
19800;SDS011;10060;48.274;12.214;2022-11-12T10:08:03;16.47;;;9.77;;
19800;SDS011;10060;48.274;12.214;2022-11-12T10:11:10;48.93;;;11.33;;
19800;SDS011;10060;48.274;12.214;2022-11-12T10:14:17;14.47;;;10.10;;
19800;SDS011;10060;48.274;12.214;2022-11-12T10:17:26;20.37;;;10.77;;
19800;SDS011;10060;48.274;12.214;2022-11-12T10:20:34;27.57;;;10.47;;
19800;SDS011;10060;48.274;12.214;2022-11-12T10:23:39;32.50;;;11.30;;
19800;SDS011;10060;48.274;12.214;2022-11-12T10:26:42;20.87;;;11.10;;
19800;SDS011;10060;48.274;12.214;2022-11-12T10:29:48;23.40;;;11.27;;
19800;SDS011;10060;48.274;12.214;2022-11-12T10:32:55;28.23;;;12.13;;
19800;SDS011;10060;48.274;12.214;2022-11-12T10:36:01;54.23;;;12.73;;
19800;SDS011;10060;48.274;12.214;2022-11-12T10:39:06;33.30;;;12.03;;
19800;SDS011;10060;48.274;12.214;2022-11-12T10:42:10;31.83;;;12.47;;
19800;SDS011;10060;48.274;12.214;2022-11-12T10:45:17;20.07;;;11.93;;
19800;SDS011;10060;48.274;12.214;2022-11-12T10:48:22;23.60;;;13.90;;
19800;SDS011;10060;48.274;12.214;2022-11-12T10:51:28;27.83;;;13.20;;
19800;SDS011;10060;48.274;12.214;2022-11-12T10:54:34;22.57;;;12.80;;
19800;SDS011;10060;48.274;12.214;2022-11-12T10:57:37;30.27;;;13.23;;
19800;SDS011;10060;48.274;12.214;2022-11-12T11:00:50;19.73;;;11.93;;
19800;SDS011;10060;48.274;12.214;2022-11-12T11:03:54;19.73;;;11.73;;
19800;SDS011;10060;48.274;12.214;2022-11-12T11:07:02;23.70;;;11.70;;
19800;SDS011;10060;48.274;12.214;2022-11-12T11:10:11;22.53;;;12.63;;
19800;SDS011;10060;48.274;12.214;2022-11-12T11:13:25;22.47;;;10.43;;
19800;SDS011;10060;48.274;12.214;2022-11-12T11:16:27;16.93;;;10.43;;
19800;SDS011;10060;48.274;12.214;2022-11-12T11:19:35;21.33;;;11.87;;
19800;SDS011;10060;48.274;12.214;2022-11-12T11:22:37;21.17;;;11.30;;
19800;SDS011;10060;48.274;12.214;2022-11-12T11:25:42;15.87;;;11.00;;
19800;SDS011;10060;48.274;12.214;2022-11-12T11:28:46;19.87;;;11.53;;
19800;SDS011;10060;48.274;12.214;2022-11-12T11:31:51;19.93;;;12.40;;
19800;SDS011;10060;48.274;12.214;2022-11-12T11:35:00;25.80;;;15.13;;
19800;SDS011;10060;48.274;12.214;2022-11-12T11:38:20;26.60;;;14.63;;
19800;SDS011;10060;48.274;12.214;2022-11-12T11:41:36;25.13;;;15.50;;
19800;SDS011;10060;48.274;12.214;2022-11-12T11:44:41;26.47;;;14.63;;
19800;SDS011;10060;48.274;12.214;2022-11-12T11:47:47;24.33;;;15.77;;
19800;SDS011;10060;48.274;12.214;2022-11-12T11:50:56;30.67;;;17.03;;
19800;SDS011;10060;48.274;12.214;2022-11-12T11:54:02;27.27;;;16.93;;
19800;SDS011;10060;48.274;12.214;2022-11-12T11:57:09;29.20;;;17.10;;
19800;SDS011;10060;48.274;12.214;2022-11-12T12:00:13;27.10;;;17.23;;
19800;SDS011;10060;48.274;12.214;2022-11-12T12:03:17;28.33;;;17.30;;
19800;SDS011;10060;48.274;12.214;2022-11-12T12:06:22;22.10;;;14.97;;
19800;SDS011;10060;48.274;12.214;2022-11-12T12:09:27;23.37;;;14.37;;
19800;SDS011;10060;48.274;12.214;2022-11-12T12:12:36;21.63;;;14.07;;
19800;SDS011;10060;48.274;12.214;2022-11-12T12:15:46;17.47;;;12.47;;
19800;SDS011;10060;48.274;12.214;2022-11-12T12:18:55;21.43;;;13.53;;
19800;SDS011;10060;48.274;12.214;2022-11-12T12:22:00;20.57;;;14.13;;
19800;SDS011;10060;48.274;12.214;2022-11-12T12:25:07;24.23;;;15.13;;
19800;SDS011;10060;48.274;12.214;2022-11-12T12:28:11;19.47;;;13.33;;
19800;SDS011;10060;48.274;12.214;2022-11-12T12:31:16;21.10;;;12.10;;
19800;SDS011;10060;48.274;12.214;2022-11-12T12:34:20;20.07;;;13.53;;
19800;SDS011;10060;48.274;12.214;2022-11-12T12:37:25;17.50;;;12.37;;
19800;SDS011;10060;48.274;12.214;2022-11-12T12:40:33;22.97;;;13.20;;
19800;SDS011;10060;48.274;12.214;2022-11-12T12:43:36;22.00;;;13.73;;
19800;SDS011;10060;48.274;12.214;2022-11-12T12:46:39;25.43;;;15.13;;
19800;SDS011;10060;48.274;12.214;2022-11-12T12:49:44;23.97;;;15.17;;
19800;SDS011;10060;48.274;12.214;2022-11-12T12:53:02;44.97;;;16.07;;
19800;SDS011;10060;48.274;12.214;2022-11-12T12:56:05;33.27;;;15.80;;
19800;SDS011;10060;48.274;12.214;2022-11-12T12:59:16;26.37;;;16.03;;
19800;SDS011;10060;48.274;12.214;2022-11-12T13:02:19;26.37;;;15.80;;
19800;SDS011;10060;48.274;12.214;2022-11-12T13:05:22;27.00;;;16.00;;
19800;SDS011;10060;48.274;12.214;2022-11-12T13:08:26;29.47;;;15.53;;
19800;SDS011;10060;48.274;12.214;2022-11-12T13:11:45;31.33;;;15.23;;
19800;SDS011;10060;48.274;12.214;2022-11-12T13:15:10;24.07;;;15.13;;
19800;SDS011;10060;48.274;12.214;2022-11-12T13:18:22;31.73;;;15.37;;
19800;SDS011;10060;48.274;12.214;2022-11-12T13:21:44;29.60;;;16.03;;
19800;SDS011;10060;48.274;12.214;2022-11-12T13:25:00;26.37;;;17.07;;
19800;SDS011;10060;48.274;12.214;2022-11-12T13:28:06;26.80;;;16.37;;
19800;SDS011;10060;48.274;12.214;2022-11-12T13:31:23;28.30;;;17.13;;
19800;SDS011;10060;48.274;12.214;2022-11-12T13:34:27;28.00;;;17.80;;
19800;SDS011;10060;48.274;12.214;2022-11-12T13:37:32;25.90;;;16.83;;
19800;SDS011;10060;48.274;12.214;2022-11-12T13:40:45;24.13;;;16.23;;
19800;SDS011;10060;48.274;12.214;2022-11-12T13:43:50;26.67;;;16.20;;
19800;SDS011;10060;48.274;12.214;2022-11-12T13:46:52;26.17;;;17.77;;
19800;SDS011;10060;48.274;12.214;2022-11-12T13:49:55;28.93;;;18.03;;
19800;SDS011;10060;48.274;12.214;2022-11-12T13:53:01;24.60;;;16.40;;
19800;SDS011;10060;48.274;12.214;2022-11-12T13:56:05;28.47;;;16.80;;
19800;SDS011;10060;48.274;12.214;2022-11-12T13:59:07;31.53;;;17.13;;
19800;SDS011;10060;48.274;12.214;2022-11-12T14:02:15;28.80;;;17.80;;
19800;SDS011;10060;48.274;12.214;2022-11-12T14:05:19;33.67;;;17.60;;
19800;SDS011;10060;48.274;12.214;2022-11-12T14:11:53;30.07;;;17.23;;
19800;SDS011;10060;48.274;12.214;2022-11-12T14:15:02;28.00;;;17.27;;
19800;SDS011;10060;48.274;12.214;2022-11-12T14:18:10;28.40;;;17.50;;
19800;SDS011;10060;48.274;12.214;2022-11-12T14:21:16;30.30;;;17.83;;
19800;SDS011;10060;48.274;12.214;2022-11-12T14:24:19;30.07;;;18.83;;
19800;SDS011;10060;48.274;12.214;2022-11-12T14:27:31;27.70;;;18.17;;
19800;SDS011;10060;48.274;12.214;2022-11-12T14:30:33;28.27;;;17.77;;
19800;SDS011;10060;48.274;12.214;2022-11-12T14:33:43;28.80;;;18.03;;
19800;SDS011;10060;48.274;12.214;2022-11-12T14:36:46;30.40;;;18.23;;
19800;SDS011;10060;48.274;12.214;2022-11-12T14:39:48;31.67;;;18.77;;
19800;SDS011;10060;48.274;12.214;2022-11-12T14:42:51;36.27;;;19.07;;
19800;SDS011;10060;48.274;12.214;2022-11-12T14:45:54;26.87;;;17.60;;
19800;SDS011;10060;48.274;12.214;2022-11-12T14:48:58;45.13;;;19.90;;
19800;SDS011;10060;48.274;12.214;2022-11-12T14:52:03;34.17;;;19.47;;
19800;SDS011;10060;48.274;12.214;2022-11-12T14:55:08;29.73;;;18.67;;
19800;SDS011;10060;48.274;12.214;2022-11-12T14:58:12;52.43;;;19.90;;
19800;SDS011;10060;48.274;12.214;2022-11-12T15:01:19;31.93;;;18.77;;
19800;SDS011;10060;48.274;12.214;2022-11-12T15:04:21;35.17;;;19.63;;
19800;SDS011;10060;48.274;12.214;2022-11-12T15:07:25;35.83;;;19.83;;
19800;SDS011;10060;48.274;12.214;2022-11-12T15:10:28;72.87;;;20.97;;
19800;SDS011;10060;48.274;12.214;2022-11-12T15:13:37;48.13;;;19.93;;
19800;SDS011;10060;48.274;12.214;2022-11-12T15:16:42;47.87;;;20.60;;
19800;SDS011;10060;48.274;12.214;2022-11-12T15:19:44;44.57;;;21.70;;
19800;SDS011;10060;48.274;12.214;2022-11-12T15:22:48;41.80;;;21.20;;
19800;SDS011;10060;48.274;12.214;2022-11-12T15:25:56;38.43;;;22.37;;
19800;SDS011;10060;48.274;12.214;2022-11-12T15:29:00;45.30;;;21.73;;
19800;SDS011;10060;48.274;12.214;2022-11-12T15:32:25;65.30;;;23.83;;
19800;SDS011;10060;48.274;12.214;2022-11-12T15:35:39;39.83;;;23.03;;
19800;SDS011;10060;48.274;12.214;2022-11-12T15:38:45;57.37;;;24.90;;
19800;SDS011;10060;48.274;12.214;2022-11-12T15:41:55;42.13;;;22.13;;
19800;SDS011;10060;48.274;12.214;2022-11-12T15:44:57;116.53;;;25.20;;
19800;SDS011;10060;48.274;12.214;2022-11-12T15:48:00;46.10;;;23.97;;
19800;SDS011;10060;48.274;12.214;2022-11-12T15:51:03;54.30;;;24.00;;
19800;SDS011;10060;48.274;12.214;2022-11-12T15:54:06;49.13;;;24.97;;
19800;SDS011;10060;48.274;12.214;2022-11-12T15:57:09;54.50;;;24.63;;
19800;SDS011;10060;48.274;12.214;2022-11-12T16:00:13;65.73;;;26.10;;
19800;SDS011;10060;48.274;12.214;2022-11-12T16:03:16;52.47;;;25.07;;
19800;SDS011;10060;48.274;12.214;2022-11-12T16:06:20;72.90;;;26.93;;
19800;SDS011;10060;48.274;12.214;2022-11-12T16:09:22;59.17;;;28.17;;
19800;SDS011;10060;48.274;12.214;2022-11-12T16:12:24;70.67;;;26.80;;
19800;SDS011;10060;48.274;12.214;2022-11-12T16:15:26;64.20;;;28.60;;
19800;SDS011;10060;48.274;12.214;2022-11-12T16:18:29;56.37;;;28.27;;
19800;SDS011;10060;48.274;12.214;2022-11-12T16:21:32;69.90;;;27.17;;
19800;SDS011;10060;48.274;12.214;2022-11-12T16:24:34;96.47;;;27.63;;
19800;SDS011;10060;48.274;12.214;2022-11-12T16:27:37;75.73;;;25.23;;
19800;SDS011;10060;48.274;12.214;2022-11-12T16:30:39;66.17;;;24.97;;
19800;SDS011;10060;48.274;12.214;2022-11-12T16:33:44;98.77;;;25.57;;
19800;SDS011;10060;48.274;12.214;2022-11-12T16:36:47;92.80;;;27.47;;
19800;SDS011;10060;48.274;12.214;2022-11-12T16:39:50;82.63;;;27.47;;
19800;SDS011;10060;48.274;12.214;2022-11-12T16:42:52;117.20;;;27.73;;
19800;SDS011;10060;48.274;12.214;2022-11-12T16:45:54;61.70;;;26.30;;
19800;SDS011;10060;48.274;12.214;2022-11-12T16:48:56;104.63;;;28.03;;
19800;SDS011;10060;48.274;12.214;2022-11-12T16:52:00;85.70;;;27.03;;
19800;SDS011;10060;48.274;12.214;2022-11-12T16:55:03;110.80;;;26.37;;
19800;SDS011;10060;48.274;12.214;2022-11-12T16:58:05;112.47;;;27.47;;
19800;SDS011;10060;48.274;12.214;2022-11-12T17:01:08;115.17;;;27.23;;
19800;SDS011;10060;48.274;12.214;2022-11-12T17:04:12;157.40;;;28.50;;
19800;SDS011;10060;48.274;12.214;2022-11-12T17:07:15;85.40;;;24.87;;
19800;SDS011;10060;48.274;12.214;2022-11-12T17:10:18;104.10;;;26.63;;
19800;SDS011;10060;48.274;12.214;2022-11-12T17:13:22;89.77;;;26.63;;
19800;SDS011;10060;48.274;12.214;2022-11-12T17:16:25;137.57;;;28.97;;
19800;SDS011;10060;48.274;12.214;2022-11-12T17:19:27;67.53;;;27.03;;
19800;SDS011;10060;48.274;12.214;2022-11-12T17:22:30;134.43;;;29.20;;
19800;SDS011;10060;48.274;12.214;2022-11-12T17:25:32;67.23;;;27.20;;
19800;SDS011;10060;48.274;12.214;2022-11-12T17:28:35;154.10;;;29.67;;
19800;SDS011;10060;48.274;12.214;2022-11-12T17:31:37;114.07;;;29.33;;
19800;SDS011;10060;48.274;12.214;2022-11-12T17:34:39;81.77;;;28.70;;
19800;SDS011;10060;48.274;12.214;2022-11-12T17:37:43;130.03;;;28.23;;
19800;SDS011;10060;48.274;12.214;2022-11-12T17:40:45;184.37;;;29.47;;
19800;SDS011;10060;48.274;12.214;2022-11-12T17:43:47;126.30;;;30.63;;
19800;SDS011;10060;48.274;12.214;2022-11-12T17:46:49;171.40;;;30.03;;
19800;SDS011;10060;48.274;12.214;2022-11-12T17:49:51;150.30;;;29.87;;
19800;SDS011;10060;48.274;12.214;2022-11-12T17:52:55;189.70;;;31.40;;